Time,TemperatureF,DewpointF,PressureIn,WindDirection,WindDirectionDegrees,WindSpeedMPH,WindSpeedGustMPH,Humidity,HourlyPrecipIn,Conditions,Clouds,dailyrainin,SoftwareType,DateUTC
2013-10-09 20:02:00,56.7,7.9,30.07,ESE,112,0.0,0.0,14,0.00,CLR,,0.00,WeatherDisplay:10.37,2013-10-10 01:02:00,
2013-10-09 20:03:00,56.7,7.9,30.07,ESE,112,0.0,0.0,14,0.00,CLR,,0.00,WeatherDisplay:10.37,2013-10-10 01:03:00,
2013-10-09 20:04:00,56.7,46.6,30.07,ESE,112,0.0,0.0,69,0.00,CLR,,0.00,WeatherDisplay:10.37,2013-10-10 01:04:00,
2013-10-09 20:09:00,75.4,64.5,29.92,ESE,112,1.2,0.0,69,0.00,CLR,,0.00,WeatherDisplay:10.37,2013-10-10 01:09:00,
2013-10-09 20:14:00,75.2,56.4,29.92,ESE,112,0.0,0.0,52,0.00,CLR,,0.00,WeatherDisplay:10.37,2013-10-10 01:14:00,
2013-10-09 20:19:00,75.2,56.4,29.92,ESE,112,0.0,0.0,52,0.00,CLR,,0.00,WeatherDisplay:10.37,2013-10-10 01:19:00,
2013-10-09 20:24:00,75.2,56.9,29.92,ESE,112,0.0,0.0,53,0.00,CLR,,0.00,WeatherDisplay:10.37,2013-10-10 01:24:00,
2013-10-09 20:29:00,75.2,56.9,29.92,ESE,112,0.0,0.0,53,0.00,CLR,,0.00,WeatherDisplay:10.37,2013-10-10 01:29:00,
2013-10-09 20:34:00,75.2,56.9,29.92,ESE,112,0.0,0.0,53,0.00,CLR,,0.00,WeatherDisplay:10.37,2013-10-10 01:34:00,
2013-10-09 20:39:00,75.2,56.9,29.92,ESE,112,0.0,0.0,53,0.00,CLR,,0.00,WeatherDisplay:10.37,2013-10-10 01:39:00,
2013-10-09 20:44:00,75.2,57.4,29.92,ESE,112,0.0,0.0,54,0.00,CLR,,0.00,WeatherDisplay:10.37,2013-10-10 01:44:00,
2013-10-09 20:49:00,75.2,57.4,29.92,ESE,112,0.0,0.0,54,0.00,CLR,,0.00,WeatherDisplay:10.37,2013-10-10 01:49:00,
2013-10-09 20:54:00,75.2,57.4,29.92,ESE,112,0.0,0.0,54,0.00,CLR,,0.00,WeatherDisplay:10.37,2013-10-10 01:54:00,
2013-10-09 20:59:00,75.2,57.4,29.92,ESE,112,0.0,0.0,54,0.00,CLR,,0.00,WeatherDisplay:10.37,2013-10-10 01:59:00,
2013-10-09 21:04:00,75.2,57.9,29.92,ESE,112,0.0,0.0,55,0.00,CLR,,0.00,WeatherDisplay:10.37,2013-10-10 02:04:00,
2013-10-09 21:09:00,75.2,57.9,29.92,ESE,112,0.0,0.0,55,0.00,CLR,,0.00,WeatherDisplay:10.37,2013-10-10 02:09:00,
2013-10-09 21:14:00,75.2,57.9,29.92,ESE,112,0.0,0.0,55,0.00,CLR,,0.00,WeatherDisplay:10.37,2013-10-10 02:14:00,
2013-10-09 21:19:00,75.2,57.9,29.92,ESE,112,0.0,0.0,55,0.00,CLR,,0.00,WeatherDisplay:10.37,2013-10-10 02:19:00,
2013-10-09 21:24:00,74.8,58.6,29.98,ESE,112,2.3,2.9,57,0.00,CLR,,0.00,WeatherDisplay:10.37,2013-10-10 02:24:00,
2013-10-09 21:29:00,74.7,58.4,29.98,ESE,112,5.6,5.6,57,0.00,CLR,,0.00,WeatherDisplay:10.37,2013-10-10 02:29:00,
2013-10-09 21:34:00,74.7,58.4,29.98,ESE,112,5.8,5.8,57,0.00,CLR,,0.00,WeatherDisplay:10.37,2013-10-10 02:34:00,
2013-10-09 21:39:00,74.7,58.4,29.98,ESE,112,5.8,5.8,57,0.00,CLR,,0.00,WeatherDisplay:10.37,2013-10-10 02:39:00,
2013-10-09 21:44:00,74.7,60.3,29.98,ESE,112,5.8,5.8,61,0.00,CLR,,0.00,WeatherDisplay:10.37,2013-10-10 02:44:00,
2013-10-09 21:49:00,74.7,60.3,29.98,ESE,112,5.8,5.8,61,0.00,CLR,,0.00,WeatherDisplay:10.37,2013-10-10 02:49:00,
2013-10-09 21:54:00,74.7,60.3,29.98,ESE,112,5.8,5.8,61,0.00,CLR,,0.00,WeatherDisplay:10.37,2013-10-10 02:54:00,
2013-10-09 21:59:00,74.7,60.3,29.98,ESE,112,5.8,5.8,61,0.00,CLR,,0.00,WeatherDisplay:10.37,2013-10-10 02:59:00,
2013-10-09 22:04:00,74.7,61.7,29.98,ESE,112,5.8,5.8,64,0.00,CLR,,0.00,WeatherDisplay:10.37,2013-10-10 03:04:00,
2013-10-09 22:09:00,74.7,61.7,29.98,ESE,112,5.8,5.8,64,0.00,CLR,,0.00,WeatherDisplay:10.37,2013-10-10 03:09:00,
2013-10-09 22:14:00,74.7,61.7,29.98,ESE,112,5.8,5.8,64,0.00,CLR,,0.00,WeatherDisplay:10.37,2013-10-10 03:14:00,
2013-10-09 22:19:00,74.7,61.7,29.98,ESE,112,5.8,5.8,64,0.00,CLR,,0.00,WeatherDisplay:10.37,2013-10-10 03:19:00,
2013-10-09 22:24:00,74.7,62.1,29.98,ESE,112,5.8,5.8,65,0.00,CLR,,0.00,WeatherDisplay:10.37,2013-10-10 03:24:00,
2013-10-09 22:29:00,74.7,62.1,29.98,ESE,112,5.8,5.8,65,0.00,CLR,,0.00,WeatherDisplay:10.37,2013-10-10 03:29:00,
2013-10-09 22:34:00,74.7,62.1,29.98,ESE,112,5.8,5.8,65,0.00,CLR,,0.00,WeatherDisplay:10.37,2013-10-10 03:34:00,
2013-10-09 22:39:00,74.7,62.1,29.98,ESE,112,5.8,5.8,65,0.00,CLR,,0.00,WeatherDisplay:10.37,2013-10-10 03:39:00,
2013-10-09 22:45:00,74.7,63.4,29.98,ESE,112,5.8,5.8,68,0.00,CLR,,0.00,WeatherDisplay:10.37,2013-10-10 03:45:00,
2013-10-09 22:49:00,74.7,63.4,29.98,ESE,112,5.8,5.8,68,0.00,CLR,,0.00,WeatherDisplay:10.37,2013-10-10 03:49:00,
2013-10-09 22:55:00,74.7,63.4,29.98,ESE,112,5.8,5.8,68,0.00,CLR,,0.00,WeatherDisplay:10.37,2013-10-10 03:55:00,
2013-10-09 23:00:00,74.7,63.4,29.98,ESE,112,5.8,5.8,68,0.00,CLR,,0.00,WeatherDisplay:10.37,2013-10-10 04:00:00,
2013-10-09 23:01:00,74.7,63.8,29.98,ESE,112,5.8,5.8,69,0.00,CLR,,0.00,WeatherDisplay:10.37,2013-10-10 04:01:00,
2013-10-09 23:06:00,71.4,14.1,29.98,East,90,2.3,2.3,11,0.00,CLR,,0.00,WeatherDisplay:10.37,2013-10-10 04:06:00,
2013-10-09 23:11:00,71.4,14.1,29.98,ESE,112,2.3,2.3,11,0.00,CLR,,0.00,WeatherDisplay:10.37,2013-10-10 04:11:00,
2013-10-09 23:16:00,71.2,14.0,29.98,NE,45,2.3,2.3,11,0.00,CLR,,0.00,WeatherDisplay:10.37,2013-10-10 04:16:00,
2013-10-09 23:21:00,71.1,13.8,29.98,North,0,3.5,3.5,11,0.00,CLR,,0.00,WeatherDisplay:10.37,2013-10-10 04:21:00,
2013-10-09 23:26:00,71.1,13.8,29.98,North,0,3.5,3.5,11,0.00,CLR,,0.00,WeatherDisplay:10.37,2013-10-10 04:26:00,
2013-10-09 23:31:00,71.1,13.8,29.98,North,0,3.5,3.5,11,0.00,CLR,,0.00,WeatherDisplay:10.37,2013-10-10 04:31:00,
2013-10-09 23:36:00,71.1,13.8,29.98,North,0,3.5,3.5,11,0.00,CLR,,0.00,WeatherDisplay:10.37,2013-10-10 04:36:00,
2013-10-09 23:41:00,71.1,13.8,29.98,North,0,3.5,3.5,11,0.00,CLR,,0.00,WeatherDisplay:10.37,2013-10-10 04:41:00,
2013-10-09 23:46:00,71.1,13.8,29.98,North,0,3.5,3.5,11,0.00,CLR,,0.00,WeatherDisplay:10.37,2013-10-10 04:46:00,
2013-10-09 23:51:00,71.1,13.8,29.98,North,0,3.5,3.5,11,0.00,CLR,,0.00,WeatherDisplay:10.37,2013-10-10 04:51:00,
2013-10-09 23:56:00,71.1,13.8,29.98,North,0,3.5,3.5,11,0.00,CLR,,0.00,WeatherDisplay:10.37,2013-10-10 04:56:00,